sensor_id;sensor_type;location;lat;lon;timestamp;P1;durP1;ratioP1;P2;durP2;ratioP2
7402;SDS011;3742;48.770;11.440;2022-07-23T00:00:35;9.18;;;8.27;;
7402;SDS011;3742;48.770;11.440;2022-07-23T00:03:05;10.40;;;8.65;;
7402;SDS011;3742;48.770;11.440;2022-07-23T00:05:34;11.23;;;7.97;;
7402;SDS011;3742;48.770;11.440;2022-07-23T00:08:03;9.52;;;7.70;;
7402;SDS011;3742;48.770;11.440;2022-07-23T00:10:36;10.50;;;8.00;;
7402;SDS011;3742;48.770;11.440;2022-07-23T00:13:06;9.00;;;8.20;;
7402;SDS011;3742;48.770;11.440;2022-07-23T00:15:35;10.75;;;8.45;;
7402;SDS011;3742;48.770;11.440;2022-07-23T00:18:03;10.70;;;8.30;;
7402;SDS011;3742;48.770;11.440;2022-07-23T00:20:32;10.02;;;7.95;;
7402;SDS011;3742;48.770;11.440;2022-07-23T00:23:00;8.88;;;8.02;;
7402;SDS011;3742;48.770;11.440;2022-07-23T00:25:28;11.27;;;8.40;;
7402;SDS011;3742;48.770;11.440;2022-07-23T00:27:58;10.45;;;9.10;;
7402;SDS011;3742;48.770;11.440;2022-07-23T00:30:28;9.07;;;8.23;;
7402;SDS011;3742;48.770;11.440;2022-07-23T00:32:58;12.00;;;8.82;;
7402;SDS011;3742;48.770;11.440;2022-07-23T00:35:29;9.70;;;8.70;;
7402;SDS011;3742;48.770;11.440;2022-07-23T00:37:58;11.48;;;8.27;;
7402;SDS011;3742;48.770;11.440;2022-07-23T00:40:28;11.80;;;8.48;;
7402;SDS011;3742;48.770;11.440;2022-07-23T00:42:57;13.55;;;7.85;;
7402;SDS011;3742;48.770;11.440;2022-07-23T00:45:26;10.93;;;7.53;;
7402;SDS011;3742;48.770;11.440;2022-07-23T00:47:58;10.60;;;8.90;;
7402;SDS011;3742;48.770;11.440;2022-07-23T00:50:26;9.80;;;8.80;;
7402;SDS011;3742;48.770;11.440;2022-07-23T00:52:55;8.70;;;7.70;;
7402;SDS011;3742;48.770;11.440;2022-07-23T00:55:23;8.45;;;7.45;;
7402;SDS011;3742;48.770;11.440;2022-07-23T00:57:52;13.48;;;8.63;;
7402;SDS011;3742;48.770;11.440;2022-07-23T01:00:21;9.18;;;8.30;;
7402;SDS011;3742;48.770;11.440;2022-07-23T01:02:51;10.02;;;8.13;;
7402;SDS011;3742;48.770;11.440;2022-07-23T01:05:19;9.85;;;7.90;;
7402;SDS011;3742;48.770;11.440;2022-07-23T01:07:50;8.77;;;7.93;;
7402;SDS011;3742;48.770;11.440;2022-07-23T01:10:23;10.57;;;8.18;;
7402;SDS011;3742;48.770;11.440;2022-07-23T01:13:01;9.73;;;8.57;;
7402;SDS011;3742;48.770;11.440;2022-07-23T01:15:31;8.60;;;7.78;;
7402;SDS011;3742;48.770;11.440;2022-07-23T01:18:01;9.75;;;7.75;;
7402;SDS011;3742;48.770;11.440;2022-07-23T01:20:30;9.40;;;7.63;;
7402;SDS011;3742;48.770;11.440;2022-07-23T01:23:00;10.75;;;7.63;;
7402;SDS011;3742;48.770;11.440;2022-07-23T01:25:29;10.30;;;7.10;;
7402;SDS011;3742;48.770;11.440;2022-07-23T01:28:01;13.23;;;6.88;;
7402;SDS011;3742;48.770;11.440;2022-07-23T01:30:29;12.02;;;7.60;;
7402;SDS011;3742;48.770;11.440;2022-07-23T01:32:59;9.88;;;7.80;;
7402;SDS011;3742;48.770;11.440;2022-07-23T01:35:27;13.63;;;8.15;;
7402;SDS011;3742;48.770;11.440;2022-07-23T01:38:01;10.30;;;7.97;;
7402;SDS011;3742;48.770;11.440;2022-07-23T01:40:29;10.60;;;8.02;;
7402;SDS011;3742;48.770;11.440;2022-07-23T01:42:58;10.30;;;7.80;;
7402;SDS011;3742;48.770;11.440;2022-07-23T01:45:28;9.90;;;7.88;;
7402;SDS011;3742;48.770;11.440;2022-07-23T01:47:57;17.42;;;7.97;;
7402;SDS011;3742;48.770;11.440;2022-07-23T01:50:25;9.73;;;7.75;;
7402;SDS011;3742;48.770;11.440;2022-07-23T01:53:09;8.80;;;7.93;;
7402;SDS011;3742;48.770;11.440;2022-07-23T01:55:37;9.65;;;8.48;;
7402;SDS011;3742;48.770;11.440;2022-07-23T01:58:06;9.30;;;7.32;;
7402;SDS011;3742;48.770;11.440;2022-07-23T02:00:34;9.63;;;7.88;;
7402;SDS011;3742;48.770;11.440;2022-07-23T02:03:03;12.13;;;7.95;;
7402;SDS011;3742;48.770;11.440;2022-07-23T02:05:36;9.68;;;7.53;;
7402;SDS011;3742;48.770;11.440;2022-07-23T02:08:04;10.45;;;6.90;;
7402;SDS011;3742;48.770;11.440;2022-07-23T02:10:37;7.78;;;6.97;;
7402;SDS011;3742;48.770;11.440;2022-07-23T02:13:05;10.25;;;6.88;;
7402;SDS011;3742;48.770;11.440;2022-07-23T02:15:34;8.10;;;7.13;;
7402;SDS011;3742;48.770;11.440;2022-07-23T02:18:03;12.25;;;6.50;;
7402;SDS011;3742;48.770;11.440;2022-07-23T02:20:31;10.00;;;6.35;;
7402;SDS011;3742;48.770;11.440;2022-07-23T02:23:00;9.07;;;6.15;;
7402;SDS011;3742;48.770;11.440;2022-07-23T02:25:28;7.47;;;6.45;;
7402;SDS011;3742;48.770;11.440;2022-07-23T02:28:02;8.00;;;6.38;;
7402;SDS011;3742;48.770;11.440;2022-07-23T02:30:30;7.65;;;6.57;;
7402;SDS011;3742;48.770;11.440;2022-07-23T02:32:59;9.82;;;6.20;;
7402;SDS011;3742;48.770;11.440;2022-07-23T02:35:28;7.90;;;5.80;;
7402;SDS011;3742;48.770;11.440;2022-07-23T02:37:59;9.77;;;6.32;;
7402;SDS011;3742;48.770;11.440;2022-07-23T02:40:30;6.82;;;5.53;;
7402;SDS011;3742;48.770;11.440;2022-07-23T02:42:58;6.72;;;6.03;;
7402;SDS011;3742;48.770;11.440;2022-07-23T02:45:29;6.47;;;5.85;;
7402;SDS011;3742;48.770;11.440;2022-07-23T02:47:58;9.27;;;5.68;;
7402;SDS011;3742;48.770;11.440;2022-07-23T02:50:26;6.00;;;5.43;;
7402;SDS011;3742;48.770;11.440;2022-07-23T02:52:57;6.80;;;5.47;;
7402;SDS011;3742;48.770;11.440;2022-07-23T02:55:25;7.18;;;5.47;;
7402;SDS011;3742;48.770;11.440;2022-07-23T02:57:54;5.88;;;5.07;;
7402;SDS011;3742;48.770;11.440;2022-07-23T03:00:22;6.63;;;5.32;;
7402;SDS011;3742;48.770;11.440;2022-07-23T03:02:53;5.45;;;4.95;;
7402;SDS011;3742;48.770;11.440;2022-07-23T03:05:21;5.90;;;5.40;;
7402;SDS011;3742;48.770;11.440;2022-07-23T03:07:50;5.57;;;4.97;;
7402;SDS011;3742;48.770;11.440;2022-07-23T03:10:20;5.43;;;4.82;;
7402;SDS011;3742;48.770;11.440;2022-07-23T03:12:48;7.53;;;5.03;;
7402;SDS011;3742;48.770;11.440;2022-07-23T03:15:17;5.72;;;5.20;;
7402;SDS011;3742;48.770;11.440;2022-07-23T03:17:45;5.30;;;4.80;;
7402;SDS011;3742;48.770;11.440;2022-07-23T03:20:15;5.63;;;5.13;;
7402;SDS011;3742;48.770;11.440;2022-07-23T03:22:44;7.60;;;4.85;;
7402;SDS011;3742;48.770;11.440;2022-07-23T03:25:12;5.75;;;5.15;;
7402;SDS011;3742;48.770;11.440;2022-07-23T03:27:40;6.78;;;5.20;;
7402;SDS011;3742;48.770;11.440;2022-07-23T03:30:09;7.97;;;5.25;;
7402;SDS011;3742;48.770;11.440;2022-07-23T03:32:38;6.72;;;5.25;;
7402;SDS011;3742;48.770;11.440;2022-07-23T03:35:07;5.50;;;4.75;;
7402;SDS011;3742;48.770;11.440;2022-07-23T03:37:44;8.50;;;5.70;;
7402;SDS011;3742;48.770;11.440;2022-07-23T03:40:13;5.35;;;4.50;;
7402;SDS011;3742;48.770;11.440;2022-07-23T03:42:42;5.38;;;4.75;;
7402;SDS011;3742;48.770;11.440;2022-07-23T03:45:10;6.00;;;5.40;;
7402;SDS011;3742;48.770;11.440;2022-07-23T03:47:40;6.40;;;4.57;;
7402;SDS011;3742;48.770;11.440;2022-07-23T03:50:08;6.45;;;4.90;;
7402;SDS011;3742;48.770;11.440;2022-07-23T03:52:37;6.25;;;5.20;;
7402;SDS011;3742;48.770;11.440;2022-07-23T03:55:07;6.15;;;4.70;;
7402;SDS011;3742;48.770;11.440;2022-07-23T03:57:36;5.35;;;4.63;;
7402;SDS011;3742;48.770;11.440;2022-07-23T04:00:05;5.38;;;4.88;;
7402;SDS011;3742;48.770;11.440;2022-07-23T04:02:39;5.00;;;4.20;;
7402;SDS011;3742;48.770;11.440;2022-07-23T04:05:10;5.68;;;5.15;;
7402;SDS011;3742;48.770;11.440;2022-07-23T04:07:41;5.57;;;4.88;;
7402;SDS011;3742;48.770;11.440;2022-07-23T04:10:10;4.70;;;4.30;;
7402;SDS011;3742;48.770;11.440;2022-07-23T04:12:39;4.97;;;4.47;;
7402;SDS011;3742;48.770;11.440;2022-07-23T04:15:07;6.63;;;4.72;;
7402;SDS011;3742;48.770;11.440;2022-07-23T04:17:36;6.65;;;5.07;;
7402;SDS011;3742;48.770;11.440;2022-07-23T04:20:06;5.90;;;4.38;;
7402;SDS011;3742;48.770;11.440;2022-07-23T04:22:42;5.40;;;4.88;;
7402;SDS011;3742;48.770;11.440;2022-07-23T04:25:13;6.28;;;4.75;;
7402;SDS011;3742;48.770;11.440;2022-07-23T04:27:44;6.30;;;4.45;;
7402;SDS011;3742;48.770;11.440;2022-07-23T04:30:13;6.70;;;6.03;;
7402;SDS011;3742;48.770;11.440;2022-07-23T04:32:41;6.30;;;4.68;;
7402;SDS011;3742;48.770;11.440;2022-07-23T04:35:18;7.07;;;5.05;;
7402;SDS011;3742;48.770;11.440;2022-07-23T04:37:47;5.47;;;4.72;;
7402;SDS011;3742;48.770;11.440;2022-07-23T04:40:19;6.80;;;5.10;;
7402;SDS011;3742;48.770;11.440;2022-07-23T04:42:48;6.63;;;5.00;;
7402;SDS011;3742;48.770;11.440;2022-07-23T04:45:17;6.47;;;5.70;;
7402;SDS011;3742;48.770;11.440;2022-07-23T04:47:48;6.15;;;5.13;;
7402;SDS011;3742;48.770;11.440;2022-07-23T04:50:16;8.27;;;5.53;;
7402;SDS011;3742;48.770;11.440;2022-07-23T04:52:51;6.73;;;4.97;;
7402;SDS011;3742;48.770;11.440;2022-07-23T04:55:21;5.80;;;5.13;;
7402;SDS011;3742;48.770;11.440;2022-07-23T04:57:49;5.88;;;5.03;;
7402;SDS011;3742;48.770;11.440;2022-07-23T05:00:18;6.15;;;4.38;;
7402;SDS011;3742;48.770;11.440;2022-07-23T05:02:46;7.37;;;5.50;;
7402;SDS011;3742;48.770;11.440;2022-07-23T05:05:15;8.57;;;6.07;;
7402;SDS011;3742;48.770;11.440;2022-07-23T05:07:44;6.43;;;5.80;;
7402;SDS011;3742;48.770;11.440;2022-07-23T05:10:13;7.18;;;5.95;;
7402;SDS011;3742;48.770;11.440;2022-07-23T05:12:42;7.20;;;6.53;;
7402;SDS011;3742;48.770;11.440;2022-07-23T05:15:11;6.53;;;5.73;;
7402;SDS011;3742;48.770;11.440;2022-07-23T05:17:39;6.57;;;5.23;;
7402;SDS011;3742;48.770;11.440;2022-07-23T05:20:12;7.43;;;5.83;;
7402;SDS011;3742;48.770;11.440;2022-07-23T05:22:41;8.85;;;6.68;;
7402;SDS011;3742;48.770;11.440;2022-07-23T05:25:10;8.70;;;6.80;;
7402;SDS011;3742;48.770;11.440;2022-07-23T05:27:38;6.40;;;5.70;;
7402;SDS011;3742;48.770;11.440;2022-07-23T05:30:09;10.23;;;6.50;;
7402;SDS011;3742;48.770;11.440;2022-07-23T05:32:41;6.73;;;6.03;;
7402;SDS011;3742;48.770;11.440;2022-07-23T05:35:14;8.40;;;6.57;;
7402;SDS011;3742;48.770;11.440;2022-07-23T05:37:51;7.37;;;6.67;;
7402;SDS011;3742;48.770;11.440;2022-07-23T05:40:20;7.93;;;6.90;;
7402;SDS011;3742;48.770;11.440;2022-07-23T05:42:49;8.50;;;7.43;;
7402;SDS011;3742;48.770;11.440;2022-07-23T05:45:19;7.43;;;6.65;;
7402;SDS011;3742;48.770;11.440;2022-07-23T05:47:49;10.10;;;7.23;;
7402;SDS011;3742;48.770;11.440;2022-07-23T05:50:26;7.70;;;6.82;;
7402;SDS011;3742;48.770;11.440;2022-07-23T05:53:10;7.83;;;6.77;;
7402;SDS011;3742;48.770;11.440;2022-07-23T05:55:58;8.37;;;7.20;;
7402;SDS011;3742;48.770;11.440;2022-07-23T05:58:28;8.03;;;6.80;;
7402;SDS011;3742;48.770;11.440;2022-07-23T06:00:58;6.80;;;6.07;;
7402;SDS011;3742;48.770;11.440;2022-07-23T06:03:30;7.43;;;6.63;;
7402;SDS011;3742;48.770;11.440;2022-07-23T06:05:59;9.03;;;6.63;;
7402;SDS011;3742;48.770;11.440;2022-07-23T06:08:28;7.97;;;6.90;;
7402;SDS011;3742;48.770;11.440;2022-07-23T06:10:57;7.90;;;6.53;;
7402;SDS011;3742;48.770;11.440;2022-07-23T06:13:26;8.23;;;6.43;;
7402;SDS011;3742;48.770;11.440;2022-07-23T06:15:54;7.40;;;6.60;;
7402;SDS011;3742;48.770;11.440;2022-07-23T06:18:25;10.27;;;6.67;;
7402;SDS011;3742;48.770;11.440;2022-07-23T06:20:54;6.90;;;6.07;;
7402;SDS011;3742;48.770;11.440;2022-07-23T06:23:26;8.70;;;6.00;;
7402;SDS011;3742;48.770;11.440;2022-07-23T06:25:55;6.17;;;5.57;;
7402;SDS011;3742;48.770;11.440;2022-07-23T06:28:24;6.57;;;5.93;;
7402;SDS011;3742;48.770;11.440;2022-07-23T06:30:52;8.83;;;6.60;;
7402;SDS011;3742;48.770;11.440;2022-07-23T06:33:24;6.80;;;6.00;;
7402;SDS011;3742;48.770;11.440;2022-07-23T06:35:53;8.13;;;6.13;;
7402;SDS011;3742;48.770;11.440;2022-07-23T06:38:21;6.83;;;6.07;;
7402;SDS011;3742;48.770;11.440;2022-07-23T06:40:50;9.03;;;6.53;;
7402;SDS011;3742;48.770;11.440;2022-07-23T06:43:19;7.53;;;6.30;;
7402;SDS011;3742;48.770;11.440;2022-07-23T06:45:53;7.93;;;5.70;;
7402;SDS011;3742;48.770;11.440;2022-07-23T06:48:21;8.23;;;6.13;;
7402;SDS011;3742;48.770;11.440;2022-07-23T06:50:51;9.90;;;6.63;;
7402;SDS011;3742;48.770;11.440;2022-07-23T06:53:23;7.87;;;6.60;;
7402;SDS011;3742;48.770;11.440;2022-07-23T06:55:52;7.33;;;6.50;;
7402;SDS011;3742;48.770;11.440;2022-07-23T06:58:21;8.80;;;6.73;;
7402;SDS011;3742;48.770;11.440;2022-07-23T07:00:51;7.80;;;6.37;;
7402;SDS011;3742;48.770;11.440;2022-07-23T07:03:19;9.73;;;6.53;;
7402;SDS011;3742;48.770;11.440;2022-07-23T07:05:48;11.70;;;7.30;;
7402;SDS011;3742;48.770;11.440;2022-07-23T07:08:19;8.40;;;6.87;;
7402;SDS011;3742;48.770;11.440;2022-07-23T07:10:47;9.27;;;6.93;;
7402;SDS011;3742;48.770;11.440;2022-07-23T07:13:16;8.60;;;6.97;;
7402;SDS011;3742;48.770;11.440;2022-07-23T07:15:44;8.50;;;6.70;;
7402;SDS011;3742;48.770;11.440;2022-07-23T07:18:13;7.63;;;6.00;;
7402;SDS011;3742;48.770;11.440;2022-07-23T07:20:41;6.83;;;5.80;;
7402;SDS011;3742;48.770;11.440;2022-07-23T07:23:10;7.72;;;6.63;;
7402;SDS011;3742;48.770;11.440;2022-07-23T07:25:43;9.43;;;6.10;;
7402;SDS011;3742;48.770;11.440;2022-07-23T07:28:12;8.43;;;6.83;;
7402;SDS011;3742;48.770;11.440;2022-07-23T07:30:40;7.50;;;6.80;;
7402;SDS011;3742;48.770;11.440;2022-07-23T07:33:09;7.33;;;6.63;;
7402;SDS011;3742;48.770;11.440;2022-07-23T07:35:37;8.23;;;6.50;;
7402;SDS011;3742;48.770;11.440;2022-07-23T07:38:06;9.03;;;6.77;;
7402;SDS011;3742;48.770;11.440;2022-07-23T07:40:35;8.50;;;7.57;;
7402;SDS011;3742;48.770;11.440;2022-07-23T07:43:05;8.13;;;7.23;;
7402;SDS011;3742;48.770;11.440;2022-07-23T07:45:33;11.33;;;7.53;;
7402;SDS011;3742;48.770;11.440;2022-07-23T07:48:02;9.07;;;7.00;;
7402;SDS011;3742;48.770;11.440;2022-07-23T07:50:30;9.47;;;7.43;;
7402;SDS011;3742;48.770;11.440;2022-07-23T07:53:00;8.90;;;7.60;;
7402;SDS011;3742;48.770;11.440;2022-07-23T07:55:29;8.00;;;7.20;;
7402;SDS011;3742;48.770;11.440;2022-07-23T07:57:58;8.37;;;7.10;;
7402;SDS011;3742;48.770;11.440;2022-07-23T08:00:29;8.50;;;6.50;;
7402;SDS011;3742;48.770;11.440;2022-07-23T08:02:59;7.13;;;6.27;;
7402;SDS011;3742;48.770;11.440;2022-07-23T08:05:30;8.07;;;6.60;;
7402;SDS011;3742;48.770;11.440;2022-07-23T08:07:58;7.83;;;6.40;;
7402;SDS011;3742;48.770;11.440;2022-07-23T08:10:27;6.87;;;6.23;;
7402;SDS011;3742;48.770;11.440;2022-07-23T08:12:56;7.93;;;6.73;;
7402;SDS011;3742;48.770;11.440;2022-07-23T08:15:28;7.13;;;6.43;;
7402;SDS011;3742;48.770;11.440;2022-07-23T08:17:59;7.10;;;6.40;;
7402;SDS011;3742;48.770;11.440;2022-07-23T08:20:27;9.63;;;6.53;;
7402;SDS011;3742;48.770;11.440;2022-07-23T08:22:57;7.33;;;6.73;;
7402;SDS011;3742;48.770;11.440;2022-07-23T08:25:27;7.50;;;6.47;;
7402;SDS011;3742;48.770;11.440;2022-07-23T08:27:57;7.30;;;6.60;;
7402;SDS011;3742;48.770;11.440;2022-07-23T08:30:26;7.07;;;6.30;;
7402;SDS011;3742;48.770;11.440;2022-07-23T08:32:58;8.10;;;6.63;;
7402;SDS011;3742;48.770;11.440;2022-07-23T08:35:28;9.77;;;6.63;;
7402;SDS011;3742;48.770;11.440;2022-07-23T08:37:58;7.97;;;6.63;;
7402;SDS011;3742;48.770;11.440;2022-07-23T08:40:29;7.97;;;6.57;;
7402;SDS011;3742;48.770;11.440;2022-07-23T08:42:58;8.00;;;6.90;;
7402;SDS011;3742;48.770;11.440;2022-07-23T08:45:27;17.40;;;7.40;;
7402;SDS011;3742;48.770;11.440;2022-07-23T08:47:57;6.83;;;6.10;;
7402;SDS011;3742;48.770;11.440;2022-07-23T08:50:29;7.67;;;6.63;;
7402;SDS011;3742;48.770;11.440;2022-07-23T08:52:57;9.30;;;6.57;;
7402;SDS011;3742;48.770;11.440;2022-07-23T08:55:27;8.67;;;5.80;;
7402;SDS011;3742;48.770;11.440;2022-07-23T08:57:55;6.97;;;6.27;;
7402;SDS011;3742;48.770;11.440;2022-07-23T09:00:24;7.40;;;6.10;;
7402;SDS011;3742;48.770;11.440;2022-07-23T09:02:52;6.60;;;5.80;;
7402;SDS011;3742;48.770;11.440;2022-07-23T09:05:22;6.37;;;5.77;;
7402;SDS011;3742;48.770;11.440;2022-07-23T09:08:07;6.63;;;6.03;;
7402;SDS011;3742;48.770;11.440;2022-07-23T09:10:47;8.33;;;6.63;;
7402;SDS011;3742;48.770;11.440;2022-07-23T09:13:27;7.67;;;6.53;;
7402;SDS011;3742;48.770;11.440;2022-07-23T09:16:01;7.07;;;6.37;;
7402;SDS011;3742;48.770;11.440;2022-07-23T09:18:32;8.73;;;6.60;;
7402;SDS011;3742;48.770;11.440;2022-07-23T09:21:12;6.90;;;6.20;;
7402;SDS011;3742;48.770;11.440;2022-07-23T09:23:49;6.38;;;5.68;;
7402;SDS011;3742;48.770;11.440;2022-07-23T09:26:20;6.03;;;5.45;;
7402;SDS011;3742;48.770;11.440;2022-07-23T09:29:08;6.90;;;5.55;;
7402;SDS011;3742;48.770;11.440;2022-07-23T09:31:43;6.35;;;5.65;;
7402;SDS011;3742;48.770;11.440;2022-07-23T09:34:14;5.53;;;4.70;;
7402;SDS011;3742;48.770;11.440;2022-07-23T09:36:46;6.55;;;5.55;;
7402;SDS011;3742;48.770;11.440;2022-07-23T09:39:16;6.47;;;5.77;;
7402;SDS011;3742;48.770;11.440;2022-07-23T09:41:49;5.40;;;4.90;;
7402;SDS011;3742;48.770;11.440;2022-07-23T09:44:20;6.20;;;5.60;;
7402;SDS011;3742;48.770;11.440;2022-07-23T09:46:57;5.50;;;4.90;;
7402;SDS011;3742;48.770;11.440;2022-07-23T09:49:27;9.75;;;4.70;;
7402;SDS011;3742;48.770;11.440;2022-07-23T09:51:59;5.03;;;4.60;;
7402;SDS011;3742;48.770;11.440;2022-07-23T09:54:29;6.47;;;5.10;;
7402;SDS011;3742;48.770;11.440;2022-07-23T09:57:01;5.65;;;5.15;;
7402;SDS011;3742;48.770;11.440;2022-07-23T09:59:33;5.88;;;5.35;;
7402;SDS011;3742;48.770;11.440;2022-07-23T10:02:02;6.60;;;5.85;;
7402;SDS011;3742;48.770;11.440;2022-07-23T10:04:40;5.15;;;4.65;;
7402;SDS011;3742;48.770;11.440;2022-07-23T10:07:27;5.00;;;4.50;;
7402;SDS011;3742;48.770;11.440;2022-07-23T10:10:15;5.45;;;4.95;;
7402;SDS011;3742;48.770;11.440;2022-07-23T10:13:05;5.65;;;5.05;;
7402;SDS011;3742;48.770;11.440;2022-07-23T10:15:48;5.15;;;4.65;;
7402;SDS011;3742;48.770;11.440;2022-07-23T10:18:18;6.57;;;5.00;;
7402;SDS011;3742;48.770;11.440;2022-07-23T10:20:46;5.50;;;5.00;;
7402;SDS011;3742;48.770;11.440;2022-07-23T10:23:18;5.68;;;5.13;;
7402;SDS011;3742;48.770;11.440;2022-07-23T10:25:55;6.10;;;5.07;;
7402;SDS011;3742;48.770;11.440;2022-07-23T10:28:33;5.18;;;4.68;;
7402;SDS011;3742;48.770;11.440;2022-07-23T10:31:20;6.47;;;4.55;;
7402;SDS011;3742;48.770;11.440;2022-07-23T10:34:18;5.30;;;4.80;;
7402;SDS011;3742;48.770;11.440;2022-07-23T10:36:51;4.43;;;4.03;;
7402;SDS011;3742;48.770;11.440;2022-07-23T10:39:24;5.00;;;4.50;;
7402;SDS011;3742;48.770;11.440;2022-07-23T10:42:07;5.45;;;4.25;;
7402;SDS011;3742;48.770;11.440;2022-07-23T10:44:39;5.47;;;4.07;;
7402;SDS011;3742;48.770;11.440;2022-07-23T10:47:09;5.57;;;4.97;;
7402;SDS011;3742;48.770;11.440;2022-07-23T10:55:50;5.50;;;5.00;;
7402;SDS011;3742;48.770;11.440;2022-07-23T10:58:20;7.45;;;6.47;;
7402;SDS011;3742;48.770;11.440;2022-07-23T11:00:49;6.05;;;4.75;;
7402;SDS011;3742;48.770;11.440;2022-07-23T11:03:27;5.72;;;4.05;;
7402;SDS011;3742;48.770;11.440;2022-07-23T11:05:59;5.85;;;4.30;;
7402;SDS011;3742;48.770;11.440;2022-07-23T11:08:27;4.53;;;4.13;;
7402;SDS011;3742;48.770;11.440;2022-07-23T11:11:07;5.03;;;4.55;;
7402;SDS011;3742;48.770;11.440;2022-07-23T11:13:38;5.80;;;5.20;;
7402;SDS011;3742;48.770;11.440;2022-07-23T11:16:19;6.20;;;4.95;;
7402;SDS011;3742;48.770;11.440;2022-07-23T11:18:54;5.32;;;4.78;;
7402;SDS011;3742;48.770;11.440;2022-07-23T11:21:40;6.90;;;5.80;;
7402;SDS011;3742;48.770;11.440;2022-07-23T11:24:22;5.47;;;4.70;;
7402;SDS011;3742;48.770;11.440;2022-07-23T11:26:56;5.00;;;4.50;;
7402;SDS011;3742;48.770;11.440;2022-07-23T11:29:45;5.20;;;4.70;;
7402;SDS011;3742;48.770;11.440;2022-07-23T11:32:29;5.70;;;4.95;;
7402;SDS011;3742;48.770;11.440;2022-07-23T11:35:18;5.32;;;4.57;;
7402;SDS011;3742;48.770;11.440;2022-07-23T11:37:48;5.10;;;4.57;;
7402;SDS011;3742;48.770;11.440;2022-07-23T11:40:20;4.28;;;3.88;;
7402;SDS011;3742;48.770;11.440;2022-07-23T11:42:57;4.85;;;4.40;;
7402;SDS011;3742;48.770;11.440;2022-07-23T11:45:30;4.80;;;4.35;;
7402;SDS011;3742;48.770;11.440;2022-07-23T11:47:59;6.47;;;4.40;;
7402;SDS011;3742;48.770;11.440;2022-07-23T11:50:28;4.80;;;4.30;;
7402;SDS011;3742;48.770;11.440;2022-07-23T11:52:56;7.65;;;5.65;;
7402;SDS011;3742;48.770;11.440;2022-07-23T11:55:25;6.43;;;4.93;;
7402;SDS011;3742;48.770;11.440;2022-07-23T11:57:56;13.35;;;5.32;;
7402;SDS011;3742;48.770;11.440;2022-07-23T12:00:27;6.28;;;5.68;;
7402;SDS011;3742;48.770;11.440;2022-07-23T12:02:58;6.65;;;5.82;;
7402;SDS011;3742;48.770;11.440;2022-07-23T12:05:29;6.45;;;5.65;;
7402;SDS011;3742;48.770;11.440;2022-07-23T12:07:58;6.05;;;5.45;;
7402;SDS011;3742;48.770;11.440;2022-07-23T12:10:28;5.80;;;5.30;;
7402;SDS011;3742;48.770;11.440;2022-07-23T12:12:59;5.72;;;5.22;;
7402;SDS011;3742;48.770;11.440;2022-07-23T12:15:30;6.30;;;5.70;;
7402;SDS011;3742;48.770;11.440;2022-07-23T12:18:00;7.90;;;6.30;;
7402;SDS011;3742;48.770;11.440;2022-07-23T12:20:29;6.00;;;5.35;;
7402;SDS011;3742;48.770;11.440;2022-07-23T12:23:02;8.82;;;5.90;;
7402;SDS011;3742;48.770;11.440;2022-07-23T12:25:33;6.40;;;5.75;;
7402;SDS011;3742;48.770;11.440;2022-07-23T12:28:05;5.85;;;5.32;;
7402;SDS011;3742;48.770;11.440;2022-07-23T12:30:37;7.47;;;5.80;;
7402;SDS011;3742;48.770;11.440;2022-07-23T12:33:06;6.18;;;5.55;;
7402;SDS011;3742;48.770;11.440;2022-07-23T12:35:36;6.38;;;5.53;;
7402;SDS011;3742;48.770;11.440;2022-07-23T12:38:08;6.03;;;5.47;;
7402;SDS011;3742;48.770;11.440;2022-07-23T12:40:41;6.50;;;5.32;;
7402;SDS011;3742;48.770;11.440;2022-07-23T12:43:19;5.95;;;4.90;;
7402;SDS011;3742;48.770;11.440;2022-07-23T12:45:48;7.57;;;5.47;;
7402;SDS011;3742;48.770;11.440;2022-07-23T12:48:19;5.85;;;5.25;;
7402;SDS011;3742;48.770;11.440;2022-07-23T12:50:54;7.72;;;5.88;;
7402;SDS011;3742;48.770;11.440;2022-07-23T12:53:26;5.97;;;5.35;;
7402;SDS011;3742;48.770;11.440;2022-07-23T12:55:59;5.55;;;5.05;;
7402;SDS011;3742;48.770;11.440;2022-07-23T12:58:43;8.35;;;5.43;;
7402;SDS011;3742;48.770;11.440;2022-07-23T13:01:27;5.85;;;5.25;;
7402;SDS011;3742;48.770;11.440;2022-07-23T13:03:59;6.60;;;5.03;;
7402;SDS011;3742;48.770;11.440;2022-07-23T13:06:39;5.78;;;5.22;;
7402;SDS011;3742;48.770;11.440;2022-07-23T13:09:09;6.25;;;5.03;;
7402;SDS011;3742;48.770;11.440;2022-07-23T13:11:39;5.60;;;5.20;;
7402;SDS011;3742;48.770;11.440;2022-07-23T13:14:10;6.53;;;5.03;;
7402;SDS011;3742;48.770;11.440;2022-07-23T13:16:40;5.60;;;5.10;;
7402;SDS011;3742;48.770;11.440;2022-07-23T13:19:08;6.85;;;5.63;;
7402;SDS011;3742;48.770;11.440;2022-07-23T13:21:38;6.95;;;6.25;;
7402;SDS011;3742;48.770;11.440;2022-07-23T13:24:08;7.38;;;6.00;;
7402;SDS011;3742;48.770;11.440;2022-07-23T13:26:37;6.72;;;6.03;;
7402;SDS011;3742;48.770;11.440;2022-07-23T13:29:05;6.30;;;5.70;;
7402;SDS011;3742;48.770;11.440;2022-07-23T13:31:38;7.45;;;5.95;;
7402;SDS011;3742;48.770;11.440;2022-07-23T13:34:07;6.22;;;5.43;;
7402;SDS011;3742;48.770;11.440;2022-07-23T13:36:36;6.22;;;5.60;;
7402;SDS011;3742;48.770;11.440;2022-07-23T13:39:04;6.68;;;5.38;;
7402;SDS011;3742;48.770;11.440;2022-07-23T13:41:36;7.13;;;5.80;;
7402;SDS011;3742;48.770;11.440;2022-07-23T13:44:04;7.18;;;5.32;;
7402;SDS011;3742;48.770;11.440;2022-07-23T13:46:33;5.80;;;5.28;;
7402;SDS011;3742;48.770;11.440;2022-07-23T13:49:03;6.45;;;5.75;;
7402;SDS011;3742;48.770;11.440;2022-07-23T13:51:51;5.78;;;5.20;;
7402;SDS011;3742;48.770;11.440;2022-07-23T13:54:20;6.00;;;5.50;;
7402;SDS011;3742;48.770;11.440;2022-07-23T13:56:48;8.73;;;5.80;;
7402;SDS011;3742;48.770;11.440;2022-07-23T13:59:17;6.05;;;5.40;;
7402;SDS011;3742;48.770;11.440;2022-07-23T14:01:45;8.15;;;5.65;;
7402;SDS011;3742;48.770;11.440;2022-07-23T14:04:35;7.63;;;5.43;;
7402;SDS011;3742;48.770;11.440;2022-07-23T14:07:04;7.60;;;6.22;;
7402;SDS011;3742;48.770;11.440;2022-07-23T14:09:33;7.03;;;5.75;;
7402;SDS011;3742;48.770;11.440;2022-07-23T14:12:01;7.45;;;5.05;;
7402;SDS011;3742;48.770;11.440;2022-07-23T14:14:30;5.68;;;5.00;;
7402;SDS011;3742;48.770;11.440;2022-07-23T14:16:59;5.97;;;5.38;;
7402;SDS011;3742;48.770;11.440;2022-07-23T14:19:28;6.50;;;5.40;;
7402;SDS011;3742;48.770;11.440;2022-07-23T14:21:58;6.13;;;5.63;;
7402;SDS011;3742;48.770;11.440;2022-07-23T14:24:27;6.70;;;5.50;;
7402;SDS011;3742;48.770;11.440;2022-07-23T14:26:59;5.93;;;5.43;;
7402;SDS011;3742;48.770;11.440;2022-07-23T14:29:28;6.95;;;5.10;;
7402;SDS011;3742;48.770;11.440;2022-07-23T14:31:57;5.95;;;5.22;;
7402;SDS011;3742;48.770;11.440;2022-07-23T14:34:48;6.25;;;5.72;;
7402;SDS011;3742;48.770;11.440;2022-07-23T14:37:18;6.05;;;5.55;;
7402;SDS011;3742;48.770;11.440;2022-07-23T14:39:47;8.30;;;6.15;;
7402;SDS011;3742;48.770;11.440;2022-07-23T14:42:16;6.18;;;5.35;;
7402;SDS011;3742;48.770;11.440;2022-07-23T14:44:45;6.15;;;5.60;;
7402;SDS011;3742;48.770;11.440;2022-07-23T14:47:14;5.55;;;5.05;;
7402;SDS011;3742;48.770;11.440;2022-07-23T14:49:47;7.28;;;5.00;;
7402;SDS011;3742;48.770;11.440;2022-07-23T14:52:17;9.20;;;5.28;;
7402;SDS011;3742;48.770;11.440;2022-07-23T14:54:46;7.05;;;5.25;;
7402;SDS011;3742;48.770;11.440;2022-07-23T14:57:16;6.50;;;5.78;;
7402;SDS011;3742;48.770;11.440;2022-07-23T14:59:51;7.95;;;6.45;;
7402;SDS011;3742;48.770;11.440;2022-07-23T15:02:21;5.80;;;5.30;;
7402;SDS011;3742;48.770;11.440;2022-07-23T15:04:49;6.68;;;5.97;;
7402;SDS011;3742;48.770;11.440;2022-07-23T15:07:19;6.50;;;5.82;;
7402;SDS011;3742;48.770;11.440;2022-07-23T15:09:51;5.57;;;5.05;;
7402;SDS011;3742;48.770;11.440;2022-07-23T15:12:20;5.68;;;5.18;;
7402;SDS011;3742;48.770;11.440;2022-07-23T15:14:48;6.18;;;5.57;;
7402;SDS011;3742;48.770;11.440;2022-07-23T15:17:17;5.75;;;5.10;;
7402;SDS011;3742;48.770;11.440;2022-07-23T15:19:47;5.97;;;5.38;;
7402;SDS011;3742;48.770;11.440;2022-07-23T15:22:16;6.22;;;5.53;;
7402;SDS011;3742;48.770;11.440;2022-07-23T15:24:45;6.38;;;4.95;;
7402;SDS011;3742;48.770;11.440;2022-07-23T15:27:14;5.88;;;5.32;;
7402;SDS011;3742;48.770;11.440;2022-07-23T15:29:43;6.97;;;5.05;;